sensor_id;sensor_type;location;lat;lon;timestamp;P1;durP1;ratioP1;P2;durP2;ratioP2
11269;SDS011;5692;48.956;9.200;2022-12-29T00:00:06;174.80;;;166.43;;
11269;SDS011;5692;48.956;9.200;2022-12-29T00:02:32;163.93;;;156.05;;
11269;SDS011;5692;48.956;9.200;2022-12-29T00:04:58;161.90;;;154.13;;
11269;SDS011;5692;48.956;9.200;2022-12-29T00:07:24;165.30;;;157.38;;
11269;SDS011;5692;48.956;9.200;2022-12-29T00:09:51;169.10;;;161.00;;
11269;SDS011;5692;48.956;9.200;2022-12-29T00:12:16;166.02;;;158.07;;
11269;SDS011;5692;48.956;9.200;2022-12-29T00:14:42;181.83;;;173.13;;
11269;SDS011;5692;48.956;9.200;2022-12-29T00:17:27;170.57;;;162.38;;
11269;SDS011;5692;48.956;9.200;2022-12-29T00:19:54;158.05;;;150.45;;
11269;SDS011;5692;48.956;9.200;2022-12-29T00:22:39;167.63;;;159.57;;
11269;SDS011;5692;48.956;9.200;2022-12-29T00:25:23;171.52;;;163.30;;
11269;SDS011;5692;48.956;9.200;2022-12-29T00:28:08;171.20;;;163.00;;
11269;SDS011;5692;48.956;9.200;2022-12-29T00:30:53;172.45;;;164.20;;
11269;SDS011;5692;48.956;9.200;2022-12-29T00:33:38;185.98;;;177.07;;
11269;SDS011;5692;48.956;9.200;2022-12-29T00:36:27;169.10;;;161.00;;
11269;SDS011;5692;48.956;9.200;2022-12-29T00:39:08;180.50;;;171.85;;
11269;SDS011;5692;48.956;9.200;2022-12-29T00:41:54;186.80;;;177.88;;
11269;SDS011;5692;48.956;9.200;2022-12-29T00:44:38;180.95;;;172.27;;
11269;SDS011;5692;48.956;9.200;2022-12-29T00:47:04;179.13;;;170.53;;
11269;SDS011;5692;48.956;9.200;2022-12-29T00:49:30;178.37;;;169.83;;
11269;SDS011;5692;48.956;9.200;2022-12-29T00:51:58;169.55;;;161.43;;
11269;SDS011;5692;48.956;9.200;2022-12-29T00:54:24;187.15;;;178.18;;
11269;SDS011;5692;48.956;9.200;2022-12-29T00:56:51;178.82;;;170.25;;
11269;SDS011;5692;48.956;9.200;2022-12-29T00:59:17;194.27;;;184.98;;
11269;SDS011;5692;48.956;9.200;2022-12-29T01:01:44;182.60;;;173.88;;
11269;SDS011;5692;48.956;9.200;2022-12-29T01:04:10;189.70;;;180.60;;
11269;SDS011;5692;48.956;9.200;2022-12-29T01:06:38;192.57;;;183.38;;
11269;SDS011;5692;48.956;9.200;2022-12-29T01:09:04;188.10;;;179.07;;
11269;SDS011;5692;48.956;9.200;2022-12-29T01:11:49;202.68;;;192.98;;
11269;SDS011;5692;48.956;9.200;2022-12-29T01:14:15;192.07;;;182.88;;
11269;SDS011;5692;48.956;9.200;2022-12-29T01:16:41;187.38;;;178.43;;
11269;SDS011;5692;48.956;9.200;2022-12-29T01:19:07;193.73;;;184.43;;
11269;SDS011;5692;48.956;9.200;2022-12-29T01:21:33;191.40;;;182.25;;
11269;SDS011;5692;48.956;9.200;2022-12-29T01:23:59;190.45;;;181.35;;
11269;SDS011;5692;48.956;9.200;2022-12-29T01:26:25;192.85;;;183.60;;
11269;SDS011;5692;48.956;9.200;2022-12-29T01:28:51;201.25;;;191.63;;
11269;SDS011;5692;48.956;9.200;2022-12-29T01:31:17;181.85;;;173.15;;
11269;SDS011;5692;48.956;9.200;2022-12-29T01:33:43;185.68;;;176.77;;
11269;SDS011;5692;48.956;9.200;2022-12-29T01:36:10;197.55;;;188.10;;
11269;SDS011;5692;48.956;9.200;2022-12-29T01:38:37;196.18;;;186.77;;
11269;SDS011;5692;48.956;9.200;2022-12-29T01:41:04;207.52;;;197.60;;
11269;SDS011;5692;48.956;9.200;2022-12-29T01:46:06;195.45;;;186.07;;
11269;SDS011;5692;48.956;9.200;2022-12-29T01:48:37;192.40;;;183.20;;
11269;SDS011;5692;48.956;9.200;2022-12-29T01:51:03;195.80;;;186.40;;
11269;SDS011;5692;48.956;9.200;2022-12-29T01:53:30;192.27;;;183.07;;
11269;SDS011;5692;48.956;9.200;2022-12-29T01:55:59;183.23;;;174.45;;
11269;SDS011;5692;48.956;9.200;2022-12-29T01:58:30;175.48;;;167.07;;
11269;SDS011;5692;48.956;9.200;2022-12-29T02:00:58;182.38;;;173.65;;
11269;SDS011;5692;48.956;9.200;2022-12-29T02:03:25;188.98;;;179.93;;
11269;SDS011;5692;48.956;9.200;2022-12-29T02:08:24;185.20;;;176.32;;
11269;SDS011;5692;48.956;9.200;2022-12-29T02:10:51;168.02;;;159.98;;
11269;SDS011;5692;48.956;9.200;2022-12-29T02:13:18;169.20;;;161.10;;
11269;SDS011;5692;48.956;9.200;2022-12-29T02:15:48;176.98;;;168.48;;
11269;SDS011;5692;48.956;9.200;2022-12-29T02:18:37;185.77;;;176.88;;
11269;SDS011;5692;48.956;9.200;2022-12-29T02:24:05;177.15;;;168.68;;
11269;SDS011;5692;48.956;9.200;2022-12-29T02:31:37;192.68;;;183.48;;
11269;SDS011;5692;48.956;9.200;2022-12-29T02:37:34;175.15;;;166.75;;
11269;SDS011;5692;48.956;9.200;2022-12-29T02:42:13;173.70;;;165.40;;
11269;SDS011;5692;48.956;9.200;2022-12-29T02:50:03;180.65;;;171.98;;
11269;SDS011;5692;48.956;9.200;2022-12-29T02:52:29;173.70;;;165.40;;
11269;SDS011;5692;48.956;9.200;2022-12-29T02:54:56;175.90;;;167.50;;
11269;SDS011;5692;48.956;9.200;2022-12-29T02:59:49;162.77;;;154.97;;
11269;SDS011;5692;48.956;9.200;2022-12-29T03:07:46;180.73;;;172.05;;
11269;SDS011;5692;48.956;9.200;2022-12-29T03:13:04;169.38;;;161.25;;
11269;SDS011;5692;48.956;9.200;2022-12-29T03:15:55;178.50;;;169.95;;
11269;SDS011;5692;48.956;9.200;2022-12-29T03:18:27;188.13;;;179.13;;
11269;SDS011;5692;48.956;9.200;2022-12-29T03:21:09;186.40;;;177.48;;
11269;SDS011;5692;48.956;9.200;2022-12-29T03:23:36;193.40;;;184.15;;
11269;SDS011;5692;48.956;9.200;2022-12-29T03:26:04;191.50;;;182.32;;
11269;SDS011;5692;48.956;9.200;2022-12-29T03:28:35;204.48;;;194.70;;
11269;SDS011;5692;48.956;9.200;2022-12-29T03:31:01;191.63;;;182.43;;
11269;SDS011;5692;48.956;9.200;2022-12-29T03:33:28;206.73;;;196.82;;
11269;SDS011;5692;48.956;9.200;2022-12-29T03:35:57;203.60;;;193.88;;
11269;SDS011;5692;48.956;9.200;2022-12-29T03:38:34;189.98;;;180.88;;
11269;SDS011;5692;48.956;9.200;2022-12-29T03:41:03;192.15;;;182.95;;
11269;SDS011;5692;48.956;9.200;2022-12-29T03:43:30;198.38;;;188.88;;
11269;SDS011;5692;48.956;9.200;2022-12-29T03:45:56;192.13;;;182.93;;
11269;SDS011;5692;48.956;9.200;2022-12-29T03:48:22;188.35;;;179.32;;
11269;SDS011;5692;48.956;9.200;2022-12-29T03:50:48;187.38;;;178.40;;
11269;SDS011;5692;48.956;9.200;2022-12-29T03:53:14;200.35;;;190.75;;
11269;SDS011;5692;48.956;9.200;2022-12-29T03:55:40;196.50;;;187.10;;
11269;SDS011;5692;48.956;9.200;2022-12-29T03:58:06;199.43;;;189.88;;
11269;SDS011;5692;48.956;9.200;2022-12-29T04:00:32;186.60;;;177.70;;
11269;SDS011;5692;48.956;9.200;2022-12-29T04:02:58;186.33;;;177.40;;
11269;SDS011;5692;48.956;9.200;2022-12-29T04:05:24;185.80;;;176.90;;
11269;SDS011;5692;48.956;9.200;2022-12-29T04:07:50;189.75;;;180.65;;
11269;SDS011;5692;48.956;9.200;2022-12-29T04:10:16;199.67;;;190.10;;
11269;SDS011;5692;48.956;9.200;2022-12-29T04:12:44;195.63;;;186.23;;
11269;SDS011;5692;48.956;9.200;2022-12-29T04:15:11;183.18;;;174.40;;
11269;SDS011;5692;48.956;9.200;2022-12-29T04:17:37;167.32;;;159.32;;
11269;SDS011;5692;48.956;9.200;2022-12-29T04:20:03;175.85;;;167.43;;
11269;SDS011;5692;48.956;9.200;2022-12-29T04:22:49;183.20;;;174.40;;
11269;SDS011;5692;48.956;9.200;2022-12-29T04:25:15;183.43;;;174.63;;
11269;SDS011;5692;48.956;9.200;2022-12-29T04:27:41;186.20;;;177.30;;
11269;SDS011;5692;48.956;9.200;2022-12-29T04:30:07;185.70;;;176.80;;
11269;SDS011;5692;48.956;9.200;2022-12-29T04:32:33;195.52;;;186.15;;
11269;SDS011;5692;48.956;9.200;2022-12-29T04:34:59;197.17;;;187.73;;
11269;SDS011;5692;48.956;9.200;2022-12-29T04:37:25;203.50;;;193.77;;
11269;SDS011;5692;48.956;9.200;2022-12-29T04:39:51;184.13;;;175.32;;
11269;SDS011;5692;48.956;9.200;2022-12-29T04:42:17;192.87;;;183.63;;
11269;SDS011;5692;48.956;9.200;2022-12-29T04:44:43;192.10;;;182.90;;
11269;SDS011;5692;48.956;9.200;2022-12-29T04:47:09;189.73;;;180.63;;
11269;SDS011;5692;48.956;9.200;2022-12-29T04:49:35;188.50;;;179.50;;
11269;SDS011;5692;48.956;9.200;2022-12-29T04:52:01;194.47;;;185.17;;
11269;SDS011;5692;48.956;9.200;2022-12-29T04:54:27;190.60;;;181.50;;
11269;SDS011;5692;48.956;9.200;2022-12-29T04:56:53;185.40;;;176.53;;
11269;SDS011;5692;48.956;9.200;2022-12-29T04:59:19;182.68;;;173.93;;
11269;SDS011;5692;48.956;9.200;2022-12-29T05:01:45;174.63;;;166.23;;
11269;SDS011;5692;48.956;9.200;2022-12-29T05:04:11;178.33;;;169.80;;
11269;SDS011;5692;48.956;9.200;2022-12-29T05:06:37;172.40;;;164.13;;
11269;SDS011;5692;48.956;9.200;2022-12-29T05:09:03;179.83;;;171.23;;
11269;SDS011;5692;48.956;9.200;2022-12-29T05:11:29;182.38;;;173.63;;
11269;SDS011;5692;48.956;9.200;2022-12-29T05:13:55;181.57;;;172.88;;
11269;SDS011;5692;48.956;9.200;2022-12-29T05:16:21;185.20;;;176.30;;
11269;SDS011;5692;48.956;9.200;2022-12-29T05:18:47;182.83;;;174.07;;
11269;SDS011;5692;48.956;9.200;2022-12-29T05:21:13;186.50;;;177.60;;
11269;SDS011;5692;48.956;9.200;2022-12-29T05:23:38;182.07;;;173.38;;
11269;SDS011;5692;48.956;9.200;2022-12-29T05:26:04;183.50;;;174.70;;
11269;SDS011;5692;48.956;9.200;2022-12-29T05:28:30;191.32;;;182.13;;
11269;SDS011;5692;48.956;9.200;2022-12-29T05:30:56;183.10;;;174.30;;
11269;SDS011;5692;48.956;9.200;2022-12-29T05:33:22;179.50;;;170.90;;
11269;SDS011;5692;48.956;9.200;2022-12-29T05:35:48;180.35;;;171.75;;
11269;SDS011;5692;48.956;9.200;2022-12-29T05:38:14;182.57;;;173.83;;
11269;SDS011;5692;48.956;9.200;2022-12-29T05:40:40;173.17;;;164.87;;
11269;SDS011;5692;48.956;9.200;2022-12-29T05:43:06;179.60;;;171.00;;
11269;SDS011;5692;48.956;9.200;2022-12-29T05:45:32;167.13;;;159.13;;
11269;SDS011;5692;48.956;9.200;2022-12-29T05:47:58;166.90;;;158.90;;
11269;SDS011;5692;48.956;9.200;2022-12-29T05:50:24;175.50;;;167.10;;
11269;SDS011;5692;48.956;9.200;2022-12-29T05:52:50;171.48;;;163.27;;
11269;SDS011;5692;48.956;9.200;2022-12-29T05:55:16;168.10;;;160.05;;
11269;SDS011;5692;48.956;9.200;2022-12-29T05:57:42;160.80;;;153.10;;
11269;SDS011;5692;48.956;9.200;2022-12-29T06:00:09;169.52;;;161.40;;
11269;SDS011;5692;48.956;9.200;2022-12-29T06:02:35;169.68;;;161.55;;
11269;SDS011;5692;48.956;9.200;2022-12-29T06:05:01;164.30;;;156.40;;
11269;SDS011;5692;48.956;9.200;2022-12-29T06:07:27;179.27;;;170.70;;
11269;SDS011;5692;48.956;9.200;2022-12-29T06:09:53;169.60;;;161.48;;
11269;SDS011;5692;48.956;9.200;2022-12-29T06:12:21;161.00;;;153.30;;
11269;SDS011;5692;48.956;9.200;2022-12-29T06:14:47;180.63;;;171.98;;
11269;SDS011;5692;48.956;9.200;2022-12-29T06:17:13;188.57;;;179.53;;
11269;SDS011;5692;48.956;9.200;2022-12-29T06:19:39;165.07;;;157.17;;
11269;SDS011;5692;48.956;9.200;2022-12-29T06:22:05;172.60;;;164.32;;
11269;SDS011;5692;48.956;9.200;2022-12-29T06:24:32;174.80;;;166.40;;
11269;SDS011;5692;48.956;9.200;2022-12-29T06:26:58;171.55;;;163.35;;
11269;SDS011;5692;48.956;9.200;2022-12-29T06:29:24;175.27;;;166.87;;
11269;SDS011;5692;48.956;9.200;2022-12-29T06:31:53;190.20;;;181.10;;
11269;SDS011;5692;48.956;9.200;2022-12-29T06:34:22;174.05;;;165.73;;
11269;SDS011;5692;48.956;9.200;2022-12-29T06:36:48;178.60;;;170.02;;
11269;SDS011;5692;48.956;9.200;2022-12-29T06:39:14;179.20;;;170.63;;
11269;SDS011;5692;48.956;9.200;2022-12-29T06:41:40;172.55;;;164.25;;
11269;SDS011;5692;48.956;9.200;2022-12-29T06:44:06;172.70;;;164.40;;
11269;SDS011;5692;48.956;9.200;2022-12-29T06:46:32;176.43;;;167.98;;
11269;SDS011;5692;48.956;9.200;2022-12-29T06:48:58;184.70;;;175.88;;
11269;SDS011;5692;48.956;9.200;2022-12-29T06:51:24;191.67;;;182.50;;
11269;SDS011;5692;48.956;9.200;2022-12-29T06:53:50;182.25;;;173.55;;
11269;SDS011;5692;48.956;9.200;2022-12-29T06:56:16;189.07;;;180.00;;
11269;SDS011;5692;48.956;9.200;2022-12-29T06:58:42;186.30;;;177.40;;
11269;SDS011;5692;48.956;9.200;2022-12-29T07:01:08;196.37;;;186.97;;
11269;SDS011;5692;48.956;9.200;2022-12-29T07:03:34;184.82;;;175.98;;
11269;SDS011;5692;48.956;9.200;2022-12-29T07:06:00;195.35;;;186.00;;
11269;SDS011;5692;48.956;9.200;2022-12-29T07:08:26;191.27;;;182.13;;
11269;SDS011;5692;48.956;9.200;2022-12-29T07:10:52;200.10;;;190.53;;
11269;SDS011;5692;48.956;9.200;2022-12-29T07:13:18;182.57;;;173.83;;
11269;SDS011;5692;48.956;9.200;2022-12-29T07:15:44;179.35;;;170.75;;
11269;SDS011;5692;48.956;9.200;2022-12-29T07:18:11;181.98;;;173.27;;
11269;SDS011;5692;48.956;9.200;2022-12-29T07:20:37;188.43;;;179.40;;
11269;SDS011;5692;48.956;9.200;2022-12-29T07:23:03;193.90;;;184.63;;
11269;SDS011;5692;48.956;9.200;2022-12-29T07:25:29;200.10;;;190.50;;
11269;SDS011;5692;48.956;9.200;2022-12-29T07:27:55;185.80;;;176.90;;
11269;SDS011;5692;48.956;9.200;2022-12-29T07:30:21;185.57;;;176.70;;
11269;SDS011;5692;48.956;9.200;2022-12-29T07:32:47;193.70;;;184.43;;
11269;SDS011;5692;48.956;9.200;2022-12-29T07:35:13;195.70;;;186.32;;
11269;SDS011;5692;48.956;9.200;2022-12-29T07:37:39;200.00;;;190.40;;
11269;SDS011;5692;48.956;9.200;2022-12-29T07:40:05;201.10;;;191.50;;
11269;SDS011;5692;48.956;9.200;2022-12-29T07:42:32;203.63;;;193.90;;
11269;SDS011;5692;48.956;9.200;2022-12-29T07:44:58;196.43;;;187.02;;
11269;SDS011;5692;48.956;9.200;2022-12-29T07:47:24;194.13;;;184.83;;
11269;SDS011;5692;48.956;9.200;2022-12-29T07:49:50;192.87;;;183.63;;
11269;SDS011;5692;48.956;9.200;2022-12-29T07:52:16;208.40;;;198.43;;
11269;SDS011;5692;48.956;9.200;2022-12-29T07:54:41;195.47;;;186.10;;
11269;SDS011;5692;48.956;9.200;2022-12-29T07:57:07;206.17;;;196.27;;
11269;SDS011;5692;48.956;9.200;2022-12-29T07:59:33;198.95;;;189.45;;
11269;SDS011;5692;48.956;9.200;2022-12-29T08:02:00;201.75;;;192.10;;
11269;SDS011;5692;48.956;9.200;2022-12-29T08:04:26;195.18;;;185.82;;
11269;SDS011;5692;48.956;9.200;2022-12-29T08:06:52;201.83;;;192.17;;
11269;SDS011;5692;48.956;9.200;2022-12-29T08:09:18;205.00;;;195.17;;
11269;SDS011;5692;48.956;9.200;2022-12-29T08:11:44;198.27;;;188.77;;
11269;SDS011;5692;48.956;9.200;2022-12-29T08:14:10;200.18;;;190.57;;
11269;SDS011;5692;48.956;9.200;2022-12-29T08:16:36;200.93;;;191.30;;
11269;SDS011;5692;48.956;9.200;2022-12-29T08:19:02;212.27;;;202.13;;
11269;SDS011;5692;48.956;9.200;2022-12-29T08:21:29;205.23;;;195.43;;
11269;SDS011;5692;48.956;9.200;2022-12-29T08:23:56;188.07;;;179.07;;
11269;SDS011;5692;48.956;9.200;2022-12-29T08:26:23;197.63;;;188.18;;
11269;SDS011;5692;48.956;9.200;2022-12-29T08:28:51;204.97;;;195.17;;
11269;SDS011;5692;48.956;9.200;2022-12-29T08:31:18;199.57;;;190.02;;
11269;SDS011;5692;48.956;9.200;2022-12-29T08:33:44;193.35;;;184.10;;
11269;SDS011;5692;48.956;9.200;2022-12-29T08:36:10;176.67;;;168.17;;
11269;SDS011;5692;48.956;9.200;2022-12-29T08:38:36;193.45;;;184.18;;
11269;SDS011;5692;48.956;9.200;2022-12-29T08:41:02;193.10;;;183.87;;
11269;SDS011;5692;48.956;9.200;2022-12-29T08:43:28;181.50;;;172.80;;
11269;SDS011;5692;48.956;9.200;2022-12-29T08:45:54;186.40;;;177.50;;
11269;SDS011;5692;48.956;9.200;2022-12-29T08:48:21;185.75;;;176.85;;
11269;SDS011;5692;48.956;9.200;2022-12-29T08:50:47;190.50;;;181.38;;
11269;SDS011;5692;48.956;9.200;2022-12-29T08:53:13;187.75;;;178.77;;
11269;SDS011;5692;48.956;9.200;2022-12-29T08:55:39;191.05;;;181.90;;
11269;SDS011;5692;48.956;9.200;2022-12-29T08:58:05;209.57;;;199.55;;
11269;SDS011;5692;48.956;9.200;2022-12-29T09:00:32;198.32;;;188.82;;
11269;SDS011;5692;48.956;9.200;2022-12-29T09:02:58;195.75;;;186.38;;
11269;SDS011;5692;48.956;9.200;2022-12-29T09:05:24;174.47;;;166.10;;
11269;SDS011;5692;48.956;9.200;2022-12-29T09:07:52;191.55;;;182.35;;
11269;SDS011;5692;48.956;9.200;2022-12-29T09:10:18;195.17;;;185.83;;
11269;SDS011;5692;48.956;9.200;2022-12-29T09:12:47;204.38;;;194.60;;
11269;SDS011;5692;48.956;9.200;2022-12-29T09:15:13;188.13;;;179.13;;
11269;SDS011;5692;48.956;9.200;2022-12-29T09:17:40;191.50;;;182.30;;
11269;SDS011;5692;48.956;9.200;2022-12-29T09:20:09;210.07;;;200.02;;
11269;SDS011;5692;48.956;9.200;2022-12-29T09:22:36;205.00;;;195.20;;
11269;SDS011;5692;48.956;9.200;2022-12-29T09:25:02;208.98;;;198.98;;
11269;SDS011;5692;48.956;9.200;2022-12-29T09:27:31;219.07;;;208.57;;
11269;SDS011;5692;48.956;9.200;2022-12-29T09:29:57;195.00;;;185.65;;
11269;SDS011;5692;48.956;9.200;2022-12-29T09:32:25;186.90;;;177.95;;
11269;SDS011;5692;48.956;9.200;2022-12-29T09:34:51;190.13;;;181.00;;
11269;SDS011;5692;48.956;9.200;2022-12-29T09:37:17;194.70;;;185.40;;
11269;SDS011;5692;48.956;9.200;2022-12-29T09:39:43;214.00;;;203.77;;
11269;SDS011;5692;48.956;9.200;2022-12-29T09:45:01;202.95;;;193.25;;
11269;SDS011;5692;48.956;9.200;2022-12-29T09:47:32;204.35;;;194.55;;
11269;SDS011;5692;48.956;9.200;2022-12-29T09:50:03;200.52;;;190.93;;
11269;SDS011;5692;48.956;9.200;2022-12-29T09:52:52;207.25;;;197.35;;
11269;SDS011;5692;48.956;9.200;2022-12-29T09:55:21;202.93;;;193.20;;
11269;SDS011;5692;48.956;9.200;2022-12-29T09:57:57;220.52;;;209.98;;
11269;SDS011;5692;48.956;9.200;2022-12-29T10:00:38;198.13;;;188.63;;
11269;SDS011;5692;48.956;9.200;2022-12-29T10:03:15;209.25;;;199.25;;
11269;SDS011;5692;48.956;9.200;2022-12-29T10:05:49;194.52;;;185.23;;
11269;SDS011;5692;48.956;9.200;2022-12-29T10:08:19;203.98;;;194.23;;
11269;SDS011;5692;48.956;9.200;2022-12-29T10:11:23;195.20;;;185.85;;
11269;SDS011;5692;48.956;9.200;2022-12-29T10:14:03;189.25;;;180.18;;
11269;SDS011;5692;48.956;9.200;2022-12-29T10:16:33;193.02;;;183.77;;
11269;SDS011;5692;48.956;9.200;2022-12-29T10:24:07;213.10;;;202.90;;
11269;SDS011;5692;48.956;9.200;2022-12-29T10:26:38;205.80;;;195.95;;
11269;SDS011;5692;48.956;9.200;2022-12-29T10:29:06;205.65;;;195.82;;
11269;SDS011;5692;48.956;9.200;2022-12-29T10:31:45;203.55;;;193.80;;
11269;SDS011;5692;48.956;9.200;2022-12-29T10:34:36;207.25;;;197.35;;
11269;SDS011;5692;48.956;9.200;2022-12-29T10:37:04;223.18;;;212.50;;
11269;SDS011;5692;48.956;9.200;2022-12-29T10:39:42;210.65;;;200.57;;
11269;SDS011;5692;48.956;9.200;2022-12-29T10:44:45;206.60;;;196.70;;
11269;SDS011;5692;48.956;9.200;2022-12-29T10:47:12;213.95;;;203.73;;
11269;SDS011;5692;48.956;9.200;2022-12-29T10:49:40;208.15;;;198.15;;
11269;SDS011;5692;48.956;9.200;2022-12-29T10:52:13;210.60;;;200.52;;
11269;SDS011;5692;48.956;9.200;2022-12-29T10:59:57;230.43;;;219.40;;
11269;SDS011;5692;48.956;9.200;2022-12-29T11:02:39;218.30;;;207.85;;
11269;SDS011;5692;48.956;9.200;2022-12-29T11:05:09;209.77;;;199.73;;
11269;SDS011;5692;48.956;9.200;2022-12-29T11:07:36;204.18;;;194.40;;
11269;SDS011;5692;48.956;9.200;2022-12-29T11:10:18;216.27;;;205.93;;
11269;SDS011;5692;48.956;9.200;2022-12-29T11:12:58;212.40;;;202.23;;
11269;SDS011;5692;48.956;9.200;2022-12-29T11:15:24;226.85;;;216.00;;
11269;SDS011;5692;48.956;9.200;2022-12-29T11:17:55;233.02;;;221.88;;
11269;SDS011;5692;48.956;9.200;2022-12-29T11:20:30;219.20;;;208.70;;
11269;SDS011;5692;48.956;9.200;2022-12-29T11:22:58;231.98;;;220.90;;
11269;SDS011;5692;48.956;9.200;2022-12-29T11:25:25;213.10;;;202.90;;
11269;SDS011;5692;48.956;9.200;2022-12-29T11:27:55;228.68;;;217.73;;
11269;SDS011;5692;48.956;9.200;2022-12-29T11:30:25;204.35;;;194.55;;
11269;SDS011;5692;48.956;9.200;2022-12-29T11:32:52;202.10;;;192.43;;
11269;SDS011;5692;48.956;9.200;2022-12-29T11:35:41;228.65;;;217.70;;
11269;SDS011;5692;48.956;9.200;2022-12-29T11:38:05;199.02;;;189.50;;
11269;SDS011;5692;48.956;9.200;2022-12-29T11:40:32;206.43;;;196.52;;
11269;SDS011;5692;48.956;9.200;2022-12-29T11:43:04;211.07;;;200.95;;
11269;SDS011;5692;48.956;9.200;2022-12-29T11:45:34;220.88;;;210.32;;
11269;SDS011;5692;48.956;9.200;2022-12-29T11:48:01;214.32;;;204.07;;
11269;SDS011;5692;48.956;9.200;2022-12-29T11:50:32;227.07;;;216.20;;
11269;SDS011;5692;48.956;9.200;2022-12-29T11:53:03;226.50;;;215.70;;
11269;SDS011;5692;48.956;9.200;2022-12-29T11:55:31;214.40;;;204.15;;
11269;SDS011;5692;48.956;9.200;2022-12-29T11:57:59;212.13;;;201.98;;
11269;SDS011;5692;48.956;9.200;2022-12-29T12:00:27;207.20;;;197.30;;
11269;SDS011;5692;48.956;9.200;2022-12-29T12:02:58;214.57;;;204.32;;
11269;SDS011;5692;48.956;9.200;2022-12-29T12:08:37;194.80;;;185.50;;
11269;SDS011;5692;48.956;9.200;2022-12-29T12:11:12;213.70;;;203.50;;
11269;SDS011;5692;48.956;9.200;2022-12-29T12:16:32;209.15;;;199.15;;
11269;SDS011;5692;48.956;9.200;2022-12-29T12:19:02;211.55;;;201.45;;
11269;SDS011;5692;48.956;9.200;2022-12-29T12:27:13;205.65;;;195.82;;
11269;SDS011;5692;48.956;9.200;2022-12-29T12:29:15;216.82;;;206.45;;
11269;SDS011;5692;48.956;9.200;2022-12-29T12:31:44;217.27;;;206.85;;
11269;SDS011;5692;48.956;9.200;2022-12-29T12:34:14;216.43;;;206.07;;
11269;SDS011;5692;48.956;9.200;2022-12-29T12:39:24;232.47;;;221.37;;
11269;SDS011;5692;48.956;9.200;2022-12-29T12:57:11;229.48;;;218.50;;
11269;SDS011;5692;48.956;9.200;2022-12-29T12:59:56;221.45;;;210.85;;
11269;SDS011;5692;48.956;9.200;2022-12-29T13:14:57;222.38;;;211.77;;
11269;SDS011;5692;48.956;9.200;2022-12-29T13:17:33;218.75;;;208.27;;
11269;SDS011;5692;48.956;9.200;2022-12-29T13:20:12;206.73;;;196.82;;
11269;SDS011;5692;48.956;9.200;2022-12-29T13:25:27;215.45;;;205.15;;
11269;SDS011;5692;48.956;9.200;2022-12-29T13:30:21;238.53;;;227.13;;
11269;SDS011;5692;48.956;9.200;2022-12-29T13:35:40;226.00;;;215.20;;
11269;SDS011;5692;48.956;9.200;2022-12-29T13:38:14;216.02;;;205.68;;
11269;SDS011;5692;48.956;9.200;2022-12-29T13:40:43;217.55;;;207.15;;
11269;SDS011;5692;48.956;9.200;2022-12-29T13:43:11;220.73;;;210.18;;
11269;SDS011;5692;48.956;9.200;2022-12-29T13:45:38;223.95;;;213.25;;
11269;SDS011;5692;48.956;9.200;2022-12-29T13:48:24;216.35;;;206.00;;
11269;SDS011;5692;48.956;9.200;2022-12-29T13:50:54;229.73;;;218.73;;
11269;SDS011;5692;48.956;9.200;2022-12-29T14:08:38;212.15;;;202.00;;
11269;SDS011;5692;48.956;9.200;2022-12-29T14:11:11;217.77;;;207.32;;
11269;SDS011;5692;48.956;9.200;2022-12-29T14:13:38;195.40;;;186.05;;
11269;SDS011;5692;48.956;9.200;2022-12-29T14:16:05;196.38;;;186.98;;
11269;SDS011;5692;48.956;9.200;2022-12-29T14:18:32;203.35;;;193.63;;
11269;SDS011;5692;48.956;9.200;2022-12-29T14:21:01;207.52;;;197.63;;
11269;SDS011;5692;48.956;9.200;2022-12-29T14:23:43;205.93;;;196.07;;
11269;SDS011;5692;48.956;9.200;2022-12-29T14:26:10;193.82;;;184.52;;
11269;SDS011;5692;48.956;9.200;2022-12-29T14:28:49;189.90;;;180.80;;
11269;SDS011;5692;48.956;9.200;2022-12-29T14:36:38;191.23;;;182.07;;
11269;SDS011;5692;48.956;9.200;2022-12-29T14:44:57;207.68;;;197.75;;
11269;SDS011;5692;48.956;9.200;2022-12-29T14:47:28;205.93;;;196.07;;
11269;SDS011;5692;48.956;9.200;2022-12-29T14:50:02;197.45;;;188.02;;
11269;SDS011;5692;48.956;9.200;2022-12-29T14:52:30;205.07;;;195.25;;
11269;SDS011;5692;48.956;9.200;2022-12-29T14:55:28;189.90;;;180.80;;
11269;SDS011;5692;48.956;9.200;2022-12-29T14:57:52;199.98;;;190.43;;
11269;SDS011;5692;48.956;9.200;2022-12-29T15:00:23;194.77;;;185.48;;
11269;SDS011;5692;48.956;9.200;2022-12-29T15:02:59;182.68;;;173.93;;
11269;SDS011;5692;48.956;9.200;2022-12-29T15:05:32;183.98;;;175.18;;
11269;SDS011;5692;48.956;9.200;2022-12-29T15:07:59;197.80;;;188.32;;
11269;SDS011;5692;48.956;9.200;2022-12-29T15:10:26;187.15;;;178.15;;
11269;SDS011;5692;48.956;9.200;2022-12-29T15:13:00;206.20;;;196.30;;
11269;SDS011;5692;48.956;9.200;2022-12-29T15:15:35;214.70;;;204.43;;
11269;SDS011;5692;48.956;9.200;2022-12-29T15:18:14;201.73;;;192.02;;
11269;SDS011;5692;48.956;9.200;2022-12-29T15:20:40;210.32;;;200.25;;
11269;SDS011;5692;48.956;9.200;2022-12-29T15:23:10;197.85;;;188.35;;
11269;SDS011;5692;48.956;9.200;2022-12-29T15:26:12;200.65;;;191.05;;
11269;SDS011;5692;48.956;9.200;2022-12-29T15:31:05;182.50;;;173.80;;
11269;SDS011;5692;48.956;9.200;2022-12-29T15:33:31;176.68;;;168.18;;
11269;SDS011;5692;48.956;9.200;2022-12-29T15:36:02;159.43;;;151.77;;
11269;SDS011;5692;48.956;9.200;2022-12-29T15:38:29;158.13;;;150.52;;
11269;SDS011;5692;48.956;9.200;2022-12-29T15:46:17;179.73;;;171.13;;
11269;SDS011;5692;48.956;9.200;2022-12-29T15:48:43;176.25;;;167.80;;
11269;SDS011;5692;48.956;9.200;2022-12-29T15:51:20;167.43;;;159.43;;
11269;SDS011;5692;48.956;9.200;2022-12-29T15:53:47;171.10;;;162.90;;
11269;SDS011;5692;48.956;9.200;2022-12-29T15:56:14;174.35;;;166.00;;
11269;SDS011;5692;48.956;9.200;2022-12-29T15:58:48;173.13;;;164.82;;
11269;SDS011;5692;48.956;9.200;2022-12-29T16:03:44;172.52;;;164.25;;
11269;SDS011;5692;48.956;9.200;2022-12-29T16:06:32;168.45;;;160.38;;
11269;SDS011;5692;48.956;9.200;2022-12-29T16:11:31;166.55;;;158.55;;
11269;SDS011;5692;48.956;9.200;2022-12-29T16:13:58;187.80;;;178.80;;
11269;SDS011;5692;48.956;9.200;2022-12-29T16:16:31;187.70;;;178.70;;
11269;SDS011;5692;48.956;9.200;2022-12-29T16:18:59;203.93;;;194.15;;
11269;SDS011;5692;48.956;9.200;2022-12-29T16:21:34;195.98;;;186.57;;
11269;SDS011;5692;48.956;9.200;2022-12-29T16:24:05;187.30;;;178.30;;
11269;SDS011;5692;48.956;9.200;2022-12-29T16:26:32;175.57;;;167.18;;
11269;SDS011;5692;48.956;9.200;2022-12-29T16:29:01;187.95;;;178.95;;
11269;SDS011;5692;48.956;9.200;2022-12-29T16:31:34;177.57;;;169.07;;
11269;SDS011;5692;48.956;9.200;2022-12-29T16:34:20;175.43;;;167.02;;
11269;SDS011;5692;48.956;9.200;2022-12-29T16:37:01;176.48;;;168.02;;
11269;SDS011;5692;48.956;9.200;2022-12-29T16:41:53;174.25;;;165.90;;